Time;durP1;ratioP1;P1;durP2;ratioP2;P2;SDS_P1;SDS_P2;PMS_P1;PMS_P2;Temp;Humidity;BMP_temperature;BMP_pressure;BME280_temperature;BME280_humidity;BME280_pressure;Samples;Min_cycle;Max_cycle;Signal;HPM_P1;HPM_P2
2022/11/26 00:01:44;;;;;;;2.80;2.05;;;11.20;96.70;;;;;;5061989;28;20449;-73
2022/11/26 00:04:12;;;;;;;5.03;3.08;;;11.20;96.70;;;;;;5064537;28;20086;-72
2022/11/26 00:06:43;;;;;;;4.10;2.70;;;11.20;96.70;;;;;;5062818;28;20037;-72
2022/11/26 00:09:15;;;;;;;5.28;2.88;;;11.20;96.70;;;;;;5064548;28;20095;-72
2022/11/26 00:11:45;;;;;;;6.38;2.92;;;11.20;96.70;;;;;;5046110;28;20067;-72
2022/11/26 00:14:14;;;;;;;5.35;2.50;;;11.20;96.70;;;;;;5063236;28;20506;-72
2022/11/26 00:16:42;;;;;;;4.53;2.45;;;11.20;96.70;;;;;;5062001;28;20049;-71
2022/11/26 00:19:10;;;;;;;5.25;2.20;;;11.10;96.70;;;;;;5063199;28;20519;-72
2022/11/26 00:21:41;;;;;;;5.20;2.50;;;11.20;96.70;;;;;;5062207;28;20047;-72
2022/11/26 00:24:27;;;;;;;5.35;2.05;;;11.10;96.70;;;;;;5062202;28;20048;-72
2022/11/26 00:26:57;;;;;;;3.10;2.20;;;11.20;96.70;;;;;;5061688;28;20053;-72
2022/11/26 00:29:25;;;;;;;3.03;2.15;;;11.20;96.70;;;;;;5058480;28;20047;-71
2022/11/26 00:31:53;;;;;;;2.80;2.00;;;11.20;96.70;;;;;;5060004;28;20082;-71
2022/11/26 00:34:21;;;;;;;3.97;2.38;;;11.20;96.70;;;;;;5061504;28;20041;-72
2022/11/26 00:36:49;;;;;;;3.60;2.38;;;11.20;96.70;;;;;;5062951;28;20043;-72
2022/11/26 00:39:20;;;;;;;3.00;2.10;;;11.20;96.70;;;;;;5063767;28;20127;-72
2022/11/26 00:41:50;;;;;;;2.90;1.98;;;11.20;96.70;;;;;;5062696;28;20048;-71
2022/11/26 00:44:22;;;;;;;4.35;2.03;;;11.20;96.70;;;;;;5061563;28;20052;-73
2022/11/26 00:46:56;;;;;;;4.35;2.10;;;11.10;96.70;;;;;;5057534;28;20049;-71
2022/11/26 00:49:24;;;;;;;3.17;1.83;;;11.10;96.70;;;;;;5062069;28;20428;-72
2022/11/26 00:51:51;;;;;;;2.03;1.52;;;11.10;96.70;;;;;;5063789;28;20102;-72
2022/11/26 00:54:20;;;;;;;4.05;2.20;;;11.10;96.70;;;;;;5061676;28;20057;-71
2022/11/26 00:56:49;;;;;;;3.10;1.95;;;11.10;96.70;;;;;;5046375;28;20494;-71
2022/11/26 00:59:21;;;;;;;2.28;1.70;;;11.10;96.70;;;;;;5062140;28;20550;-72
2022/11/26 01:01:49;;;;;;;3.38;1.90;;;11.00;96.70;;;;;;5063972;28;20051;-69
2022/11/26 01:04:17;;;;;;;3.38;1.80;;;11.00;96.70;;;;;;5062611;28;20040;-70
2022/11/26 01:06:45;;;;;;;3.47;1.85;;;11.00;96.70;;;;;;5063760;28;20117;-72
2022/11/26 01:09:17;;;;;;;3.13;1.90;;;10.90;96.70;;;;;;5063181;28;20060;-71
2022/11/26 01:11:46;;;;;;;2.60;1.75;;;10.90;96.70;;;;;;5064691;28;21060;-72
2022/11/26 01:14:22;;;;;;;3.25;1.58;;;10.90;96.70;;;;;;5063447;28;20044;-72
2022/11/26 01:16:52;;;;;;;2.13;1.70;;;10.90;96.70;;;;;;5044573;28;20060;-71
2022/11/26 01:19:20;;;;;;;3.08;2.25;;;10.90;96.70;;;;;;5061730;28;20147;-72
2022/11/26 01:21:48;;;;;;;4.72;1.92;;;10.90;96.70;;;;;;5062107;28;20456;-71
2022/11/26 01:24:16;;;;;;;5.00;1.90;;;10.90;96.70;;;;;;5063108;28;20106;-71
2022/11/26 01:26:44;;;;;;;2.95;1.52;;;10.90;96.70;;;;;;5062142;28;20094;-71
2022/11/26 01:29:15;;;;;;;2.53;1.70;;;10.90;96.70;;;;;;5063079;28;20044;-72
2022/11/26 01:31:45;;;;;;;2.80;1.98;;;10.90;96.70;;;;;;5061884;28;20112;-71
2022/11/26 01:34:13;;;;;;;3.92;1.60;;;10.80;96.70;;;;;;5061912;28;20509;-71
2022/11/26 01:36:47;;;;;;;2.47;1.90;;;10.90;96.70;;;;;;5062032;28;20478;-71
2022/11/26 01:39:16;;;;;;;2.83;1.40;;;10.90;96.70;;;;;;5060948;28;20052;-69
2022/11/26 01:41:50;;;;;;;2.53;1.55;;;10.90;96.70;;;;;;5060239;28;20498;-69
2022/11/26 01:44:20;;;;;;;2.28;1.75;;;10.90;96.70;;;;;;5061788;28;20466;-69
2022/11/26 01:46:51;;;;;;;3.58;1.60;;;10.90;96.70;;;;;;5058918;28;20424;-69
2022/11/26 01:49:21;;;;;;;3.45;1.60;;;10.90;96.70;;;;;;5062994;28;20044;-69
2022/11/26 01:51:55;;;;;;;3.10;2.00;;;10.90;96.70;;;;;;5062052;28;20058;-71
2022/11/26 01:54:23;;;;;;;2.53;1.63;;;10.80;96.70;;;;;;5061168;28;20044;-69
2022/11/26 01:56:55;;;;;;;2.85;1.52;;;10.80;96.70;;;;;;5062359;28;20507;-69
2022/11/26 01:59:27;;;;;;;2.58;1.60;;;10.80;96.70;;;;;;5063028;28;20076;-69
2022/11/26 02:01:58;;;;;;;2.55;1.38;;;10.80;96.70;;;;;;5043753;28;20044;-69
2022/11/26 02:04:30;;;;;;;2.47;1.20;;;10.70;96.70;;;;;;5041566;28;20058;-68
2022/11/26 02:06:59;;;;;;;4.57;1.23;;;10.70;96.70;;;;;;5061157;28;20037;-69
2022/11/26 02:09:28;;;;;;;2.42;1.50;;;10.70;96.70;;;;;;5060780;28;20040;-69
2022/11/26 02:11:56;;;;;;;2.33;1.38;;;10.70;96.70;;;;;;5062039;28;20131;-69
2022/11/26 02:14:27;;;;;;;3.42;1.30;;;10.70;96.70;;;;;;5062382;28;20044;-69
2022/11/26 02:17:12;;;;;;;2.05;0.90;;;10.70;96.70;;;;;;5058901;28;20048;-68
2022/11/26 02:20:16;;;;;;;2.90;1.42;;;10.70;96.70;;;;;;5062227;28;20059;-68
2022/11/26 02:23:15;;;;;;;2.38;1.30;;;10.70;96.70;;;;;;5044323;28;20052;-69
2022/11/26 02:26:22;;;;;;;2.20;1.40;;;10.70;96.70;;;;;;5061202;28;20048;-69
2022/11/26 02:29:10;;;;;;;3.22;1.40;;;10.70;96.70;;;;;;5044361;28;20506;-68
2022/11/26 02:31:47;;;;;;;2.83;1.27;;;10.70;96.70;;;;;;5059371;28;20650;-69
2022/11/26 02:34:22;;;;;;;2.10;1.13;;;10.70;96.70;;;;;;5054990;28;20052;-68
2022/11/26 02:36:54;;;;;;;1.90;1.25;;;10.70;96.70;;;;;;5061805;28;20531;-69
2022/11/26 02:39:24;;;;;;;1.13;1.00;;;10.60;96.70;;;;;;5061536;28;20067;-69
2022/11/26 02:41:53;;;;;;;2.72;1.23;;;10.60;96.70;;;;;;5061751;28;20071;-68
2022/11/26 02:44:23;;;;;;;3.15;1.35;;;10.60;96.70;;;;;;5054511;28;20120;-69
2022/11/26 02:46:59;;;;;;;2.75;1.45;;;10.60;96.70;;;;;;5062043;28;20048;-69
2022/11/26 02:49:30;;;;;;;2.17;1.40;;;10.60;96.70;;;;;;5059841;28;20040;-71
2022/11/26 02:52:01;;;;;;;2.80;1.40;;;10.50;96.70;;;;;;5062205;28;20061;-69
2022/11/26 02:54:30;;;;;;;1.67;1.10;;;10.50;96.70;;;;;;5059486;28;20078;-69
2022/11/26 02:56:59;;;;;;;2.20;1.30;;;10.50;96.70;;;;;;5062177;28;20048;-69
2022/11/26 02:59:27;;;;;;;1.95;1.30;;;10.40;96.70;;;;;;5060908;28;20561;-69
2022/11/26 03:02:00;;;;;;;2.30;1.25;;;10.40;96.70;;;;;;5061579;28;20115;-69
2022/11/26 03:04:31;;;;;;;3.10;1.50;;;10.40;96.70;;;;;;5043443;28;20044;-69
2022/11/26 03:07:03;;;;;;;2.38;1.45;;;10.40;96.70;;;;;;5058956;28;20059;-69
2022/11/26 03:09:39;;;;;;;2.97;1.52;;;10.40;96.70;;;;;;5059654;28;20147;-69
2022/11/26 03:12:07;;;;;;;1.73;1.33;;;10.40;96.70;;;;;;5062194;28;20124;-69
2022/11/26 03:14:35;;;;;;;1.95;1.48;;;10.50;96.70;;;;;;5061031;28;20052;-69
2022/11/26 03:17:05;;;;;;;2.33;1.50;;;10.40;96.70;;;;;;5059311;28;20044;-68
2022/11/26 03:19:32;;;;;;;2.25;1.25;;;10.40;96.70;;;;;;5060770;28;20048;-69
2022/11/26 03:22:00;;;;;;;2.85;1.40;;;10.40;96.70;;;;;;5059733;28;20048;-69
2022/11/26 03:24:29;;;;;;;4.18;1.90;;;10.50;96.70;;;;;;5061530;28;20574;-69
2022/11/26 03:26:57;;;;;;;2.95;1.20;;;10.50;96.70;;;;;;5061215;28;20120;-69
2022/11/26 03:29:25;;;;;;;3.20;1.92;;;10.50;96.70;;;;;;5059324;28;20459;-69
2022/11/26 03:31:53;;;;;;;2.70;1.50;;;10.50;96.70;;;;;;5059191;28;20056;-69
2022/11/26 03:34:22;;;;;;;3.22;1.42;;;10.50;96.70;;;;;;5059898;28;20568;-69
2022/11/26 03:36:50;;;;;;;2.50;1.70;;;10.60;96.70;;;;;;5058993;28;20514;-69
2022/11/26 03:39:18;;;;;;;2.75;1.55;;;10.60;96.70;;;;;;5058897;28;20094;-69
2022/11/26 03:41:46;;;;;;;2.40;1.65;;;10.60;96.70;;;;;;5061045;28;20056;-69
2022/11/26 03:44:14;;;;;;;2.28;1.38;;;10.60;96.70;;;;;;5060743;28;20068;-69
2022/11/26 03:46:42;;;;;;;2.72;1.67;;;10.60;96.70;;;;;;5061125;28;20052;-69
2022/11/26 03:49:10;;;;;;;2.42;1.42;;;10.60;96.70;;;;;;5061140;28;20124;-69
2022/11/26 03:51:39;;;;;;;2.03;1.52;;;10.60;96.70;;;;;;5060567;28;20094;-69
2022/11/26 03:54:08;;;;;;;3.33;1.70;;;10.60;96.70;;;;;;5061386;28;20048;-68
2022/11/26 03:56:36;;;;;;;2.08;1.40;;;10.60;96.70;;;;;;5060202;28;20566;-69
2022/11/26 03:59:04;;;;;;;1.90;1.55;;;10.60;96.70;;;;;;5059696;28;20444;-68
2022/11/26 04:01:32;;;;;;;2.60;1.77;;;10.60;96.70;;;;;;5063295;28;20076;-69
2022/11/26 04:04:00;;;;;;;3.95;1.55;;;10.70;96.70;;;;;;5064563;28;20041;-68
2022/11/26 04:06:28;;;;;;;3.03;1.60;;;10.70;96.70;;;;;;5062637;28;20048;-69
2022/11/26 04:08:57;;;;;;;2.33;1.50;;;10.70;96.70;;;;;;5064704;28;20056;-69
2022/11/26 04:11:25;;;;;;;2.63;1.60;;;10.60;96.70;;;;;;5062156;28;20067;-69
2022/11/26 04:13:53;;;;;;;4.15;2.47;;;10.70;96.70;;;;;;5064951;28;20469;-69
2022/11/26 04:16:21;;;;;;;3.90;1.67;;;10.60;96.70;;;;;;5062259;28;20052;-69
2022/11/26 04:18:49;;;;;;;4.93;1.67;;;10.60;96.70;;;;;;5062735;28;20067;-68
2022/11/26 04:21:17;;;;;;;3.10;1.40;;;10.60;96.70;;;;;;5042170;28;20414;-69
2022/11/26 04:23:45;;;;;;;2.78;1.90;;;10.70;96.70;;;;;;5063322;28;20071;-70
2022/11/26 04:26:14;;;;;;;1.90;1.52;;;10.70;96.70;;;;;;5063454;28;20040;-69
2022/11/26 04:28:43;;;;;;;3.72;1.77;;;10.60;96.70;;;;;;5063321;28;20055;-69
2022/11/26 04:31:12;;;;;;;3.10;2.00;;;10.60;96.70;;;;;;5061777;28;20093;-69
2022/11/26 04:33:40;;;;;;;2.60;1.90;;;10.60;96.70;;;;;;5064418;28;20123;-70
2022/11/26 04:36:09;;;;;;;3.30;1.83;;;10.50;96.70;;;;;;5058268;28;20417;-69
2022/11/26 04:38:37;;;;;;;3.50;1.98;;;10.50;96.70;;;;;;5063395;28;20040;-69
2022/11/26 04:41:05;;;;;;;2.95;2.15;;;10.50;96.70;;;;;;5063843;28;20109;-69
2022/11/26 04:43:34;;;;;;;3.45;2.20;;;10.50;96.70;;;;;;5064326;28;20032;-69
2022/11/26 04:46:02;;;;;;;2.58;1.90;;;10.50;96.70;;;;;;5063073;28;20568;-70
2022/11/26 04:48:30;;;;;;;3.42;2.38;;;10.50;96.70;;;;;;5062856;28;20041;-69
2022/11/26 04:50:58;;;;;;;3.78;2.10;;;10.50;96.70;;;;;;5062516;28;20052;-70
2022/11/26 04:53:26;;;;;;;3.25;2.17;;;10.50;96.70;;;;;;5061169;28;20394;-70
2022/11/26 04:55:54;;;;;;;3.10;2.50;;;10.50;96.70;;;;;;5061751;28;20056;-69
2022/11/26 04:58:22;;;;;;;3.28;2.33;;;10.50;96.70;;;;;;5061801;28;20940;-69
2022/11/26 05:00:52;;;;;;;3.92;2.38;;;10.50;96.70;;;;;;5061544;28;20512;-69
2022/11/26 05:03:20;;;;;;;4.40;2.50;;;10.50;96.70;;;;;;5062274;28;20039;-69
2022/11/26 05:05:48;;;;;;;3.17;2.60;;;10.50;96.70;;;;;;5045507;28;20071;-70
2022/11/26 05:08:16;;;;;;;4.40;2.70;;;10.50;96.70;;;;;;5053617;28;20048;-70
2022/11/26 05:10:44;;;;;;;3.17;2.88;;;10.50;96.70;;;;;;5059511;28;20056;-70
2022/11/26 05:13:12;;;;;;;3.65;2.53;;;10.50;96.70;;;;;;5062025;28;20567;-70
2022/11/26 05:15:41;;;;;;;3.20;2.47;;;10.50;96.70;;;;;;5060767;28;20056;-70
2022/11/26 05:18:11;;;;;;;3.58;2.70;;;10.50;96.70;;;;;;5062540;28;20467;-70
2022/11/26 05:20:39;;;;;;;4.20;3.00;;;10.40;96.70;;;;;;5061760;28;20731;-70
2022/11/26 05:23:07;;;;;;;3.13;2.60;;;10.40;96.70;;;;;;5062525;28;20086;-70
2022/11/26 05:25:35;;;;;;;6.85;2.75;;;10.50;96.70;;;;;;5062247;28;20154;-70
2022/11/26 05:28:03;;;;;;;5.32;2.80;;;10.50;96.70;;;;;;5062215;28;20063;-70
2022/11/26 05:30:31;;;;;;;4.90;2.95;;;10.50;96.70;;;;;;5061037;28;20052;-70
2022/11/26 05:32:59;;;;;;;3.70;3.08;;;10.40;96.70;;;;;;5061753;28;20044;-70
2022/11/26 05:35:29;;;;;;;2.95;2.55;;;10.40;96.70;;;;;;5062464;28;20048;-70
2022/11/26 05:37:57;;;;;;;3.95;2.80;;;10.30;96.70;;;;;;5061129;28;20502;-70
2022/11/26 05:40:37;;;;;;;3.08;2.63;;;10.20;96.70;;;;;;5063334;28;20041;-70
2022/11/26 05:43:06;;;;;;;5.32;3.15;;;10.20;96.70;;;;;;5062192;28;20885;-70
2022/11/26 05:45:34;;;;;;;3.40;2.90;;;10.20;96.70;;;;;;5062639;28;20033;-70
2022/11/26 05:48:02;;;;;;;3.30;3.00;;;10.20;96.70;;;;;;5060332;28;20131;-69
2022/11/26 05:50:32;;;;;;;3.63;2.50;;;10.10;96.70;;;;;;5063191;28;20193;-70
2022/11/26 05:53:00;;;;;;;3.28;2.90;;;10.10;96.70;;;;;;5061886;28;20044;-70
2022/11/26 05:55:28;;;;;;;3.70;2.78;;;10.10;96.70;;;;;;5062924;28;20451;-70
2022/11/26 05:57:56;;;;;;;4.50;3.17;;;10.10;96.70;;;;;;5042099;28;20052;-71
2022/11/26 06:00:24;;;;;;;5.18;3.28;;;10.10;96.70;;;;;;5061005;28;20136;-70
2022/11/26 06:02:53;;;;;;;3.80;2.70;;;10.00;96.70;;;;;;5060102;28;20051;-70
2022/11/26 06:05:21;;;;;;;4.45;3.20;;;10.10;96.70;;;;;;5062628;28;20045;-70
2022/11/26 06:07:51;;;;;;;5.50;3.00;;;10.10;96.70;;;;;;5060344;28;20387;-70
2022/11/26 06:10:19;;;;;;;4.35;3.10;;;10.10;96.70;;;;;;5060299;28;20071;-70
2022/11/26 06:12:47;;;;;;;4.00;3.10;;;10.00;96.70;;;;;;5060513;28;20388;-70
2022/11/26 06:15:16;;;;;;;3.20;2.83;;;10.00;96.70;;;;;;5061318;28;20049;-70
2022/11/26 06:17:44;;;;;;;4.53;3.33;;;10.00;96.70;;;;;;5040556;28;20048;-69
2022/11/26 06:20:13;;;;;;;4.82;2.72;;;10.10;96.70;;;;;;5057946;28;20059;-70
2022/11/26 06:22:42;;;;;;;3.83;2.88;;;10.00;96.70;;;;;;5061964;28;20476;-70
2022/11/26 06:25:13;;;;;;;4.15;3.60;;;10.00;96.70;;;;;;5061176;28;20039;-70
2022/11/26 06:27:41;;;;;;;5.28;4.05;;;10.00;96.70;;;;;;5040673;28;20384;-70
2022/11/26 06:30:11;;;;;;;5.65;3.60;;;10.00;96.70;;;;;;5060473;28;20135;-69
2022/11/26 06:32:39;;;;;;;5.78;3.53;;;10.00;96.70;;;;;;5062149;28;20083;-70
2022/11/26 06:35:07;;;;;;;5.43;3.80;;;10.00;96.70;;;;;;5060329;28;20056;-70
2022/11/26 06:37:36;;;;;;;4.03;3.60;;;10.00;96.70;;;;;;5061482;28;20044;-69
2022/11/26 06:40:05;;;;;;;4.85;4.10;;;10.00;96.70;;;;;;5061254;28;20052;-70
2022/11/26 06:42:35;;;;;;;5.90;4.43;;;10.10;96.70;;;;;;5060574;28;20036;-69
2022/11/26 06:45:03;;;;;;;4.93;4.22;;;10.10;96.70;;;;;;5061478;28;20072;-70
2022/11/26 06:47:31;;;;;;;4.60;3.95;;;10.10;96.70;;;;;;5060983;28;20051;-70
2022/11/26 06:50:00;;;;;;;7.50;4.03;;;10.20;96.70;;;;;;5043256;28;20094;-70
2022/11/26 06:52:34;;;;;;;5.35;4.47;;;10.30;96.70;;;;;;5061651;28;20621;-70
2022/11/26 06:55:03;;;;;;;6.22;5.00;;;10.30;96.70;;;;;;5061111;28;20090;-70
2022/11/26 06:57:31;;;;;;;4.95;4.15;;;10.40;96.70;;;;;;5060814;28;20040;-70
2022/11/26 07:00:00;;;;;;;6.25;4.22;;;10.40;96.70;;;;;;5057805;28;20505;-70
2022/11/26 07:02:29;;;;;;;5.65;4.60;;;10.50;96.70;;;;;;5061875;28;20049;-70
2022/11/26 07:04:57;;;;;;;5.40;4.65;;;10.60;96.70;;;;;;5059500;28;20056;-70
